Rosita, Texas
Current Conditions -  °F | °C
As of 6:56 PM on Saturday 25 Oct 2014 (Local Time) from KNOG Reporting Station
Clear Clear  
Wind Chill: 80°   Ceiling: Unl
Heat Index: 81°   Visibility: 10mi
Dew Point: 62°   Wind: 9mph
Humidity: 54%   Direction: 120°ESE
Pressure: 30.09"   Gusts: NA
Location:  27.8895°N, 98.3467°W
Report Text: KNOG 252356Z AUTO 12008KT 10SM CLR 27/17 A3009 RMK AO2 SLP170 T02670167 10317 20267 53000 $
Loading
Personal Weather Stations






























Interactive Weather Map
Tropical Storm Tracking
New forecast layout! Learn more

10-Day Weather Forecast

Advertisements
Track Severe Weather on mobile